This is the latest recevied weather packets stored in our database for station/object K4VEB. If no packets are shown the sender has not sent any weather packets the latest 10 day(s).
| Time | Temp. | Humidity | Pressure | Rain* | Wind** | Luminosity | Snow |
|---|---|---|---|---|---|---|---|
| 1777840150 | 25° C | 50% | 1015.8 hPa | 0 mm | - | 692 W/m² | - |
| 1777839546 | 25° C | 51% | 1016 hPa | 0 mm | - | 167 W/m² | - |
| 1777838941 | 25° C | 51% | 1016.1 hPa | 0 mm | - | 214 W/m² | - |
| 1777836816 | 25° C | 53% | 1016.6 hPa | 0 mm | - | 326 W/m² | - |
| 1777836512 | 25.56° C | 52% | 1016.6 hPa | 0 mm | - | 237 W/m² | - |
| 1777834995 | 26.11° C | 47% | 1017 hPa | 0 mm | - | 839 W/m² | - |
| 1777834692 | 25.56° C | 53% | 1017.1 hPa | 0 mm | - | 846 W/m² | - |
| 1777834088 | 25.56° C | 54% | 1017.5 hPa | 0 mm | - | 909 W/m² | - |
| 1777833178 | 25.56° C | 50% | 1017.6 hPa | 0 mm | - | 287 W/m² | - |
| 1777832875 | 24.44° C | 54% | 1017.4 hPa | 0 mm | - | 980 W/m² | - |
| 1777832574 | 25° C | 51% | 1017.7 hPa | 0 mm | - | 229 W/m² | - |
| 1777831664 | 25° C | 52% | 1017.6 hPa | 0 mm | - | 929 W/m² | - |
| 1777831362 | 25° C | 53% | 1017.6 hPa | 0 mm | - | 715 W/m² | - |
| 1777829547 | 23.89° C | 55% | 1018.2 hPa | 0 mm | - | 899 W/m² | - |
| 1777828335 | 23.33° C | 62% | 1018.4 hPa | 0 mm | - | 1010 W/m² | - |
| 1777827426 | 22.78° C | 63% | 1018.4 hPa | 0 mm | - | 954 W/m² | - |
| 1777827122 | 23.33° C | 60% | 1018.4 hPa | 0 mm | - | 206 W/m² | - |
| 1777826818 | 23.33° C | 59% | 1018.6 hPa | 0 mm | - | 281 W/m² | - |
| 1777825910 | 23.33° C | 61% | 1018.7 hPa | 0 mm | - | 1022 W/m² | - |
| 1777825607 | 22.78° C | 61% | 1018.8 hPa | 0 mm | - | 903 W/m² | - |
| 1777825305 | 22.78° C | 62% | 1018.8 hPa | 0 mm | - | 849 W/m² | - |
| 1777825001 | 22.22° C | 66% | 1018.6 hPa | 0 mm | - | 840 W/m² | - |
| 1777824697 | 22.22° C | 65% | 1018.8 hPa | 0 mm | - | 333 W/m² | - |
| 1777824395 | 22.78° C | 64% | 1019 hPa | 0 mm | - | 274 W/m² | - |
| 1777824090 | 23.33° C | 65% | 1018.9 hPa | 0 mm | - | 919 W/m² | - |
* Rain latest hour (hover to see other rain measurements)
** Current wind speed in m/s (hover to see current wind gust speed)